KBAF

Westfield-Barnes Regional Airport

Westfield/Springfield, Massachusetts, USA
METAR KBAF 191453Z 23004KT 10SM CLR M04/M09 A3001 RMK AO2 SLP169 T10441094 50005
Observed Flight Rules
Jan-19 @ 14:53 UTC (32 minutes ago) Visual Flight Rules
Wind Visibility Clouds
230° at 4 knots 10 miles
  • Clear skies
Temperatures Readings
Current -4°C / 25°F
Dewpoint -9°C / 16°F
Humidity 69%
Altimeter 30.01" Hg
Pressure 1016.9 hPa
Elevation 83
METAR KBAF 191453Z 23004KT 10SM CLR M04/M09 A3001 RMK AO2 SLP169 T10441094 50005
Observed Flight Rules
Jan-19 @ 14:53 UTC
(32 minutes ago)
VFR
Wind Visibility
230° at 4 knots 10 miles
Clouds
  • Clear skies
Temperature Dewpoint
-4°C / 25°F -9°C / 16°F
Humidity Altimeter Pressure
69% 30.01" Hg 1016.9 hPa